sensor_id;sensor_type;location;lat;lon;timestamp;P1;durP1;ratioP1;P2;durP2;ratioP2
39814;SDS011;25495;45.948;4.568;2022-08-19T00:01:42;4.05;;;2.90;;
39814;SDS011;25495;45.948;4.568;2022-08-19T00:04:10;3.35;;;2.40;;
39814;SDS011;25495;45.948;4.568;2022-08-19T00:06:38;2.97;;;2.40;;
39814;SDS011;25495;45.948;4.568;2022-08-19T00:09:06;3.35;;;2.33;;
39814;SDS011;25495;45.948;4.568;2022-08-19T00:11:34;3.08;;;2.67;;
39814;SDS011;25495;45.948;4.568;2022-08-19T00:14:02;3.13;;;2.58;;
39814;SDS011;25495;45.948;4.568;2022-08-19T00:16:29;3.67;;;2.20;;
39814;SDS011;25495;45.948;4.568;2022-08-19T00:18:55;9.20;;;2.65;;
39814;SDS011;25495;45.948;4.568;2022-08-19T00:21:21;3.08;;;2.38;;
39814;SDS011;25495;45.948;4.568;2022-08-19T00:23:48;3.38;;;2.45;;
39814;SDS011;25495;45.948;4.568;2022-08-19T00:26:14;2.40;;;2.03;;
39814;SDS011;25495;45.948;4.568;2022-08-19T00:28:39;3.75;;;2.55;;
39814;SDS011;25495;45.948;4.568;2022-08-19T00:31:06;3.38;;;2.10;;
39814;SDS011;25495;45.948;4.568;2022-08-19T00:33:34;2.80;;;2.08;;
39814;SDS011;25495;45.948;4.568;2022-08-19T00:36:00;3.05;;;2.35;;
39814;SDS011;25495;45.948;4.568;2022-08-19T00:38:32;3.40;;;2.50;;
39814;SDS011;25495;45.948;4.568;2022-08-19T00:40:59;2.90;;;2.10;;
39814;SDS011;25495;45.948;4.568;2022-08-19T00:43:25;4.13;;;2.25;;
39814;SDS011;25495;45.948;4.568;2022-08-19T00:45:52;3.58;;;1.95;;
39814;SDS011;25495;45.948;4.568;2022-08-19T00:48:18;3.35;;;2.20;;
39814;SDS011;25495;45.948;4.568;2022-08-19T00:50:46;4.22;;;2.05;;
39814;SDS011;25495;45.948;4.568;2022-08-19T00:53:15;3.40;;;1.95;;
39814;SDS011;25495;45.948;4.568;2022-08-19T00:55:46;3.90;;;2.15;;
39814;SDS011;25495;45.948;4.568;2022-08-19T00:58:15;7.72;;;2.33;;
39814;SDS011;25495;45.948;4.568;2022-08-19T01:00:44;2.97;;;2.17;;
39814;SDS011;25495;45.948;4.568;2022-08-19T01:03:11;2.40;;;2.00;;
39814;SDS011;25495;45.948;4.568;2022-08-19T01:05:41;4.15;;;2.17;;
39814;SDS011;25495;45.948;4.568;2022-08-19T01:08:08;3.33;;;2.10;;
39814;SDS011;25495;45.948;4.568;2022-08-19T01:10:36;2.75;;;1.92;;
39814;SDS011;25495;45.948;4.568;2022-08-19T01:13:05;2.85;;;2.10;;
39814;SDS011;25495;45.948;4.568;2022-08-19T01:15:33;3.42;;;2.10;;
39814;SDS011;25495;45.948;4.568;2022-08-19T01:18:05;4.15;;;2.25;;
39814;SDS011;25495;45.948;4.568;2022-08-19T01:20:33;2.13;;;1.58;;
39814;SDS011;25495;45.948;4.568;2022-08-19T01:22:59;2.38;;;1.92;;
39814;SDS011;25495;45.948;4.568;2022-08-19T01:25:34;3.08;;;1.77;;
39814;SDS011;25495;45.948;4.568;2022-08-19T01:28:16;3.03;;;2.00;;
39814;SDS011;25495;45.948;4.568;2022-08-19T01:30:44;2.92;;;1.83;;
39814;SDS011;25495;45.948;4.568;2022-08-19T01:33:11;3.25;;;2.05;;
39814;SDS011;25495;45.948;4.568;2022-08-19T01:35:37;2.72;;;1.63;;
39814;SDS011;25495;45.948;4.568;2022-08-19T01:38:05;2.55;;;1.80;;
39814;SDS011;25495;45.948;4.568;2022-08-19T01:40:34;3.10;;;2.08;;
39814;SDS011;25495;45.948;4.568;2022-08-19T01:43:04;4.83;;;2.07;;
39814;SDS011;25495;45.948;4.568;2022-08-19T01:45:31;2.22;;;1.67;;
39814;SDS011;25495;45.948;4.568;2022-08-19T01:47:59;2.25;;;1.90;;
39814;SDS011;25495;45.948;4.568;2022-08-19T01:50:25;2.33;;;1.50;;
39814;SDS011;25495;45.948;4.568;2022-08-19T01:52:52;2.55;;;1.83;;
39814;SDS011;25495;45.948;4.568;2022-08-19T01:55:19;3.47;;;2.00;;
39814;SDS011;25495;45.948;4.568;2022-08-19T01:57:47;2.78;;;1.48;;
39814;SDS011;25495;45.948;4.568;2022-08-19T02:02:43;1.95;;;1.60;;
39814;SDS011;25495;45.948;4.568;2022-08-19T02:05:09;3.60;;;1.48;;
39814;SDS011;25495;45.948;4.568;2022-08-19T02:07:37;3.25;;;1.77;;
39814;SDS011;25495;45.948;4.568;2022-08-19T02:10:05;1.60;;;1.38;;
39814;SDS011;25495;45.948;4.568;2022-08-19T02:12:34;3.80;;;1.55;;
39814;SDS011;25495;45.948;4.568;2022-08-19T02:15:00;1.95;;;1.65;;
39814;SDS011;25495;45.948;4.568;2022-08-19T02:17:27;1.92;;;1.60;;
39814;SDS011;25495;45.948;4.568;2022-08-19T02:19:57;1.30;;;1.17;;
39814;SDS011;25495;45.948;4.568;2022-08-19T02:22:23;2.20;;;1.67;;
39814;SDS011;25495;45.948;4.568;2022-08-19T02:24:50;2.22;;;1.88;;
39814;SDS011;25495;45.948;4.568;2022-08-19T02:27:17;1.75;;;1.40;;
39814;SDS011;25495;45.948;4.568;2022-08-19T02:29:43;2.08;;;1.50;;
39814;SDS011;25495;45.948;4.568;2022-08-19T02:32:11;3.83;;;1.45;;
39814;SDS011;25495;45.948;4.568;2022-08-19T02:34:38;2.50;;;1.40;;
39814;SDS011;25495;45.948;4.568;2022-08-19T02:37:04;2.67;;;1.38;;
39814;SDS011;25495;45.948;4.568;2022-08-19T02:39:30;4.78;;;1.60;;
39814;SDS011;25495;45.948;4.568;2022-08-19T02:41:56;2.10;;;1.52;;
39814;SDS011;25495;45.948;4.568;2022-08-19T02:44:24;3.05;;;1.42;;
39814;SDS011;25495;45.948;4.568;2022-08-19T02:46:50;2.70;;;1.45;;
39814;SDS011;25495;45.948;4.568;2022-08-19T02:49:16;2.67;;;1.67;;
39814;SDS011;25495;45.948;4.568;2022-08-19T02:51:42;1.70;;;1.50;;
39814;SDS011;25495;45.948;4.568;2022-08-19T02:54:09;3.15;;;1.92;;
39814;SDS011;25495;45.948;4.568;2022-08-19T02:56:38;4.57;;;1.42;;
39814;SDS011;25495;45.948;4.568;2022-08-19T02:59:05;3.03;;;1.88;;
39814;SDS011;25495;45.948;4.568;2022-08-19T03:01:36;5.85;;;2.10;;
39814;SDS011;25495;45.948;4.568;2022-08-19T03:04:05;2.95;;;2.10;;
39814;SDS011;25495;45.948;4.568;2022-08-19T03:06:32;2.72;;;1.77;;
39814;SDS011;25495;45.948;4.568;2022-08-19T03:09:01;3.30;;;1.85;;
39814;SDS011;25495;45.948;4.568;2022-08-19T03:11:28;2.78;;;2.25;;
39814;SDS011;25495;45.948;4.568;2022-08-19T03:13:55;2.85;;;2.17;;
39814;SDS011;25495;45.948;4.568;2022-08-19T03:16:23;3.80;;;2.10;;
39814;SDS011;25495;45.948;4.568;2022-08-19T03:18:50;3.90;;;2.75;;
39814;SDS011;25495;45.948;4.568;2022-08-19T03:21:19;3.90;;;2.40;;
39814;SDS011;25495;45.948;4.568;2022-08-19T03:23:46;3.35;;;2.38;;
39814;SDS011;25495;45.948;4.568;2022-08-19T03:26:13;3.47;;;2.75;;
39814;SDS011;25495;45.948;4.568;2022-08-19T03:28:41;4.38;;;2.50;;
39814;SDS011;25495;45.948;4.568;2022-08-19T03:31:10;2.92;;;2.38;;
39814;SDS011;25495;45.948;4.568;2022-08-19T03:33:37;4.32;;;2.70;;
39814;SDS011;25495;45.948;4.568;2022-08-19T03:36:08;5.25;;;2.58;;
39814;SDS011;25495;45.948;4.568;2022-08-19T03:38:58;3.22;;;2.47;;
39814;SDS011;25495;45.948;4.568;2022-08-19T03:41:27;3.67;;;2.58;;
39814;SDS011;25495;45.948;4.568;2022-08-19T03:43:55;4.93;;;2.40;;
39814;SDS011;25495;45.948;4.568;2022-08-19T03:46:23;10.80;;;3.03;;
39814;SDS011;25495;45.948;4.568;2022-08-19T03:48:55;3.70;;;2.63;;
39814;SDS011;25495;45.948;4.568;2022-08-19T03:51:25;4.72;;;2.58;;
39814;SDS011;25495;45.948;4.568;2022-08-19T03:53:59;4.63;;;3.08;;
39814;SDS011;25495;45.948;4.568;2022-08-19T03:56:26;3.63;;;2.78;;
39814;SDS011;25495;45.948;4.568;2022-08-19T03:58:56;3.38;;;2.42;;
39814;SDS011;25495;45.948;4.568;2022-08-19T04:01:24;5.35;;;2.40;;
39814;SDS011;25495;45.948;4.568;2022-08-19T04:03:55;5.38;;;3.22;;
39814;SDS011;25495;45.948;4.568;2022-08-19T04:06:29;3.75;;;2.75;;
39814;SDS011;25495;45.948;4.568;2022-08-19T04:08:57;4.20;;;2.90;;
39814;SDS011;25495;45.948;4.568;2022-08-19T04:11:31;7.40;;;3.22;;
39814;SDS011;25495;45.948;4.568;2022-08-19T04:14:06;3.75;;;2.80;;
39814;SDS011;25495;45.948;4.568;2022-08-19T04:16:33;4.35;;;2.80;;
39814;SDS011;25495;45.948;4.568;2022-08-19T04:19:00;4.13;;;2.60;;
39814;SDS011;25495;45.948;4.568;2022-08-19T04:21:27;7.10;;;2.58;;
39814;SDS011;25495;45.948;4.568;2022-08-19T04:23:54;4.90;;;2.75;;
39814;SDS011;25495;45.948;4.568;2022-08-19T04:26:22;4.28;;;3.15;;
39814;SDS011;25495;45.948;4.568;2022-08-19T04:28:50;5.38;;;2.70;;
39814;SDS011;25495;45.948;4.568;2022-08-19T04:31:17;5.40;;;2.50;;
39814;SDS011;25495;45.948;4.568;2022-08-19T04:33:45;4.75;;;3.03;;
39814;SDS011;25495;45.948;4.568;2022-08-19T04:36:18;3.85;;;2.55;;
39814;SDS011;25495;45.948;4.568;2022-08-19T04:38:50;4.25;;;2.75;;
39814;SDS011;25495;45.948;4.568;2022-08-19T04:41:19;4.70;;;2.88;;
39814;SDS011;25495;45.948;4.568;2022-08-19T04:44:03;4.90;;;2.78;;
39814;SDS011;25495;45.948;4.568;2022-08-19T04:46:29;4.63;;;2.83;;
39814;SDS011;25495;45.948;4.568;2022-08-19T04:48:56;6.07;;;2.85;;
39814;SDS011;25495;45.948;4.568;2022-08-19T04:51:24;4.50;;;3.08;;
39814;SDS011;25495;45.948;4.568;2022-08-19T04:53:50;6.13;;;3.05;;
39814;SDS011;25495;45.948;4.568;2022-08-19T04:56:17;3.65;;;2.70;;
39814;SDS011;25495;45.948;4.568;2022-08-19T04:58:47;3.92;;;2.85;;
39814;SDS011;25495;45.948;4.568;2022-08-19T05:01:26;4.22;;;2.95;;
39814;SDS011;25495;45.948;4.568;2022-08-19T05:06:23;4.25;;;3.00;;
39814;SDS011;25495;45.948;4.568;2022-08-19T05:08:50;4.40;;;2.70;;
39814;SDS011;25495;45.948;4.568;2022-08-19T05:11:17;4.78;;;3.35;;
39814;SDS011;25495;45.948;4.568;2022-08-19T05:13:45;4.38;;;3.00;;
39814;SDS011;25495;45.948;4.568;2022-08-19T05:16:13;5.97;;;3.47;;
39814;SDS011;25495;45.948;4.568;2022-08-19T05:18:40;7.07;;;2.92;;
39814;SDS011;25495;45.948;4.568;2022-08-19T05:21:25;5.45;;;3.25;;
39814;SDS011;25495;45.948;4.568;2022-08-19T05:24:10;5.13;;;3.33;;
39814;SDS011;25495;45.948;4.568;2022-08-19T05:26:41;6.03;;;3.35;;
39814;SDS011;25495;45.948;4.568;2022-08-19T05:29:10;6.13;;;3.70;;
39814;SDS011;25495;45.948;4.568;2022-08-19T05:31:36;5.43;;;4.00;;
39814;SDS011;25495;45.948;4.568;2022-08-19T05:34:03;5.57;;;3.92;;
39814;SDS011;25495;45.948;4.568;2022-08-19T05:36:34;5.60;;;3.15;;
39814;SDS011;25495;45.948;4.568;2022-08-19T05:39:04;7.43;;;3.78;;
39814;SDS011;25495;45.948;4.568;2022-08-19T05:41:31;6.70;;;4.20;;
39814;SDS011;25495;45.948;4.568;2022-08-19T05:43:58;8.07;;;4.80;;
39814;SDS011;25495;45.948;4.568;2022-08-19T05:46:27;6.80;;;4.30;;
39814;SDS011;25495;45.948;4.568;2022-08-19T05:48:53;7.20;;;4.35;;
39814;SDS011;25495;45.948;4.568;2022-08-19T05:51:21;6.20;;;4.57;;
39814;SDS011;25495;45.948;4.568;2022-08-19T05:53:47;7.22;;;4.20;;
39814;SDS011;25495;45.948;4.568;2022-08-19T05:56:15;8.10;;;4.75;;
39814;SDS011;25495;45.948;4.568;2022-08-19T05:58:42;6.38;;;4.38;;
39814;SDS011;25495;45.948;4.568;2022-08-19T06:01:11;6.63;;;4.40;;
39814;SDS011;25495;45.948;4.568;2022-08-19T06:03:39;5.75;;;4.15;;
39814;SDS011;25495;45.948;4.568;2022-08-19T06:06:05;6.20;;;4.38;;
39814;SDS011;25495;45.948;4.568;2022-08-19T06:08:33;6.93;;;4.60;;
39814;SDS011;25495;45.948;4.568;2022-08-19T06:14:05;6.22;;;4.70;;
39814;SDS011;25495;45.948;4.568;2022-08-19T06:16:36;9.45;;;4.80;;
39814;SDS011;25495;45.948;4.568;2022-08-19T06:19:04;7.00;;;4.57;;
39814;SDS011;25495;45.948;4.568;2022-08-19T06:21:38;7.30;;;4.45;;
39814;SDS011;25495;45.948;4.568;2022-08-19T06:24:06;5.28;;;3.72;;
39814;SDS011;25495;45.948;4.568;2022-08-19T06:26:35;6.30;;;3.90;;
39814;SDS011;25495;45.948;4.568;2022-08-19T06:29:02;5.30;;;3.72;;
39814;SDS011;25495;45.948;4.568;2022-08-19T06:31:31;6.68;;;3.63;;
39814;SDS011;25495;45.948;4.568;2022-08-19T06:33:59;5.50;;;3.83;;
39814;SDS011;25495;45.948;4.568;2022-08-19T06:36:29;5.60;;;3.75;;
39814;SDS011;25495;45.948;4.568;2022-08-19T06:39:03;4.95;;;3.70;;
39814;SDS011;25495;45.948;4.568;2022-08-19T06:41:30;6.18;;;3.42;;
39814;SDS011;25495;45.948;4.568;2022-08-19T06:43:59;4.72;;;2.78;;
39814;SDS011;25495;45.948;4.568;2022-08-19T06:46:25;3.90;;;3.00;;
39814;SDS011;25495;45.948;4.568;2022-08-19T06:48:51;6.43;;;3.35;;
39814;SDS011;25495;45.948;4.568;2022-08-19T06:51:18;8.60;;;3.90;;
39814;SDS011;25495;45.948;4.568;2022-08-19T06:53:47;6.93;;;4.45;;
39814;SDS011;25495;45.948;4.568;2022-08-19T06:56:14;6.28;;;4.60;;
39814;SDS011;25495;45.948;4.568;2022-08-19T06:58:42;9.05;;;5.20;;
39814;SDS011;25495;45.948;4.568;2022-08-19T07:01:08;7.97;;;5.03;;
39814;SDS011;25495;45.948;4.568;2022-08-19T07:03:35;8.80;;;5.15;;
39814;SDS011;25495;45.948;4.568;2022-08-19T07:06:06;11.25;;;6.50;;
39814;SDS011;25495;45.948;4.568;2022-08-19T07:08:37;11.23;;;6.57;;
39814;SDS011;25495;45.948;4.568;2022-08-19T07:11:06;13.23;;;6.55;;
39814;SDS011;25495;45.948;4.568;2022-08-19T07:13:33;10.52;;;6.80;;
39814;SDS011;25495;45.948;4.568;2022-08-19T07:18:32;10.30;;;6.32;;
39814;SDS011;25495;45.948;4.568;2022-08-19T07:21:05;14.40;;;6.97;;
39814;SDS011;25495;45.948;4.568;2022-08-19T07:23:32;11.20;;;7.05;;
39814;SDS011;25495;45.948;4.568;2022-08-19T07:25:58;13.13;;;7.32;;
39814;SDS011;25495;45.948;4.568;2022-08-19T07:28:29;11.40;;;6.72;;
39814;SDS011;25495;45.948;4.568;2022-08-19T07:30:54;11.45;;;8.00;;
39814;SDS011;25495;45.948;4.568;2022-08-19T07:33:20;13.93;;;8.23;;
39814;SDS011;25495;45.948;4.568;2022-08-19T07:35:46;11.98;;;7.60;;
39814;SDS011;25495;45.948;4.568;2022-08-19T07:38:12;11.07;;;7.60;;
39814;SDS011;25495;45.948;4.568;2022-08-19T07:40:38;12.90;;;8.23;;
39814;SDS011;25495;45.948;4.568;2022-08-19T07:43:06;10.80;;;6.90;;
39814;SDS011;25495;45.948;4.568;2022-08-19T07:45:31;13.82;;;8.75;;
39814;SDS011;25495;45.948;4.568;2022-08-19T07:47:57;11.93;;;7.88;;
39814;SDS011;25495;45.948;4.568;2022-08-19T07:50:23;15.10;;;7.38;;
39814;SDS011;25495;45.948;4.568;2022-08-19T07:52:49;9.10;;;6.65;;
39814;SDS011;25495;45.948;4.568;2022-08-19T07:55:16;12.20;;;8.20;;
39814;SDS011;25495;45.948;4.568;2022-08-19T07:57:45;14.90;;;8.17;;
39814;SDS011;25495;45.948;4.568;2022-08-19T08:00:10;14.40;;;8.38;;
39814;SDS011;25495;45.948;4.568;2022-08-19T08:02:37;11.27;;;6.95;;
39814;SDS011;25495;45.948;4.568;2022-08-19T08:05:04;9.80;;;7.13;;
39814;SDS011;25495;45.948;4.568;2022-08-19T08:07:48;13.80;;;7.85;;
39814;SDS011;25495;45.948;4.568;2022-08-19T08:10:32;16.33;;;8.20;;
39814;SDS011;25495;45.948;4.568;2022-08-19T08:12:58;14.45;;;9.02;;
39814;SDS011;25495;45.948;4.568;2022-08-19T08:15:24;12.60;;;8.57;;
39814;SDS011;25495;45.948;4.568;2022-08-19T08:17:50;16.02;;;8.75;;
39814;SDS011;25495;45.948;4.568;2022-08-19T08:20:16;18.83;;;9.60;;
39814;SDS011;25495;45.948;4.568;2022-08-19T08:22:43;12.90;;;8.38;;
39814;SDS011;25495;45.948;4.568;2022-08-19T08:25:28;13.48;;;8.50;;
39814;SDS011;25495;45.948;4.568;2022-08-19T08:27:56;15.15;;;8.93;;
39814;SDS011;25495;45.948;4.568;2022-08-19T08:30:25;12.00;;;8.23;;
39814;SDS011;25495;45.948;4.568;2022-08-19T08:32:52;16.27;;;9.23;;
39814;SDS011;25495;45.948;4.568;2022-08-19T08:35:20;12.75;;;8.75;;
39814;SDS011;25495;45.948;4.568;2022-08-19T08:37:48;17.45;;;9.00;;
39814;SDS011;25495;45.948;4.568;2022-08-19T08:43:11;12.60;;;8.55;;
39814;SDS011;25495;45.948;4.568;2022-08-19T08:46:05;11.25;;;7.50;;
39814;SDS011;25495;45.948;4.568;2022-08-19T08:48:49;11.63;;;7.68;;
39814;SDS011;25495;45.948;4.568;2022-08-19T08:51:30;11.30;;;8.13;;
39814;SDS011;25495;45.948;4.568;2022-08-19T08:54:00;13.45;;;8.48;;
39814;SDS011;25495;45.948;4.568;2022-08-19T08:56:29;12.25;;;8.05;;
39814;SDS011;25495;45.948;4.568;2022-08-19T08:59:00;12.15;;;7.72;;
39814;SDS011;25495;45.948;4.568;2022-08-19T09:01:34;12.27;;;7.85;;
39814;SDS011;25495;45.948;4.568;2022-08-19T09:04:02;12.90;;;6.95;;
39814;SDS011;25495;45.948;4.568;2022-08-19T09:06:38;10.68;;;7.63;;
39814;SDS011;25495;45.948;4.568;2022-08-19T09:15:13;12.55;;;6.32;;
39814;SDS011;25495;45.948;4.568;2022-08-19T09:17:41;10.25;;;6.80;;
39814;SDS011;25495;45.948;4.568;2022-08-19T09:22:36;10.15;;;5.97;;
39814;SDS011;25495;45.948;4.568;2022-08-19T09:25:04;7.90;;;5.53;;
39814;SDS011;25495;45.948;4.568;2022-08-19T09:27:32;9.40;;;6.28;;
39814;SDS011;25495;45.948;4.568;2022-08-19T09:29:58;7.65;;;5.60;;
39814;SDS011;25495;45.948;4.568;2022-08-19T09:32:24;11.38;;;5.82;;
39814;SDS011;25495;45.948;4.568;2022-08-19T09:34:52;7.53;;;5.20;;
39814;SDS011;25495;45.948;4.568;2022-08-19T09:37:23;7.93;;;5.45;;
39814;SDS011;25495;45.948;4.568;2022-08-19T09:39:49;7.63;;;5.07;;
39814;SDS011;25495;45.948;4.568;2022-08-19T09:42:15;7.07;;;5.13;;
39814;SDS011;25495;45.948;4.568;2022-08-19T09:44:42;7.13;;;4.95;;
39814;SDS011;25495;45.948;4.568;2022-08-19T09:47:10;7.88;;;5.15;;
39814;SDS011;25495;45.948;4.568;2022-08-19T09:49:37;5.80;;;5.03;;
39814;SDS011;25495;45.948;4.568;2022-08-19T09:52:04;7.72;;;5.28;;
39814;SDS011;25495;45.948;4.568;2022-08-19T09:54:32;6.50;;;5.10;;
39814;SDS011;25495;45.948;4.568;2022-08-19T09:56:59;8.95;;;5.20;;
39814;SDS011;25495;45.948;4.568;2022-08-19T09:59:25;6.28;;;4.43;;
39814;SDS011;25495;45.948;4.568;2022-08-19T10:01:52;6.47;;;4.70;;
39814;SDS011;25495;45.948;4.568;2022-08-19T10:04:21;12.18;;;6.07;;
39814;SDS011;25495;45.948;4.568;2022-08-19T10:06:48;7.55;;;5.38;;
39814;SDS011;25495;45.948;4.568;2022-08-19T10:09:16;7.45;;;5.05;;
39814;SDS011;25495;45.948;4.568;2022-08-19T10:11:43;7.22;;;4.68;;
39814;SDS011;25495;45.948;4.568;2022-08-19T10:14:14;8.20;;;5.15;;
39814;SDS011;25495;45.948;4.568;2022-08-19T10:16:42;6.10;;;4.55;;
39814;SDS011;25495;45.948;4.568;2022-08-19T10:19:08;6.30;;;4.05;;
39814;SDS011;25495;45.948;4.568;2022-08-19T10:21:34;5.78;;;4.57;;
39814;SDS011;25495;45.948;4.568;2022-08-19T10:24:03;11.10;;;4.22;;
39814;SDS011;25495;45.948;4.568;2022-08-19T10:26:32;8.15;;;5.20;;
39814;SDS011;25495;45.948;4.568;2022-08-19T10:28:58;9.20;;;5.07;;
39814;SDS011;25495;45.948;4.568;2022-08-19T10:31:26;8.23;;;4.82;;
39814;SDS011;25495;45.948;4.568;2022-08-19T10:33:54;7.15;;;4.45;;
39814;SDS011;25495;45.948;4.568;2022-08-19T10:36:33;5.95;;;3.90;;
39814;SDS011;25495;45.948;4.568;2022-08-19T10:39:02;5.50;;;4.00;;
39814;SDS011;25495;45.948;4.568;2022-08-19T10:41:32;10.02;;;4.53;;
39814;SDS011;25495;45.948;4.568;2022-08-19T10:44:01;8.98;;;3.95;;
39814;SDS011;25495;45.948;4.568;2022-08-19T10:46:30;4.97;;;3.58;;
39814;SDS011;25495;45.948;4.568;2022-08-19T10:48:58;5.25;;;3.90;;
39814;SDS011;25495;45.948;4.568;2022-08-19T10:51:26;5.03;;;3.25;;
39814;SDS011;25495;45.948;4.568;2022-08-19T10:54:10;5.88;;;3.38;;
39814;SDS011;25495;45.948;4.568;2022-08-19T10:56:37;4.43;;;3.25;;
39814;SDS011;25495;45.948;4.568;2022-08-19T10:59:22;4.47;;;3.15;;
39814;SDS011;25495;45.948;4.568;2022-08-19T11:01:52;5.20;;;3.55;;
39814;SDS011;25495;45.948;4.568;2022-08-19T11:04:27;4.80;;;3.72;;
39814;SDS011;25495;45.948;4.568;2022-08-19T11:06:58;5.63;;;3.05;;
39814;SDS011;25495;45.948;4.568;2022-08-19T11:09:27;5.55;;;3.70;;
39814;SDS011;25495;45.948;4.568;2022-08-19T11:11:58;4.78;;;3.20;;
39814;SDS011;25495;45.948;4.568;2022-08-19T11:14:24;4.88;;;3.20;;
39814;SDS011;25495;45.948;4.568;2022-08-19T11:16:53;4.18;;;3.00;;
39814;SDS011;25495;45.948;4.568;2022-08-19T11:19:26;4.07;;;3.08;;
39814;SDS011;25495;45.948;4.568;2022-08-19T11:21:54;6.82;;;3.55;;
39814;SDS011;25495;45.948;4.568;2022-08-19T11:24:22;6.25;;;3.45;;
39814;SDS011;25495;45.948;4.568;2022-08-19T11:26:52;4.82;;;3.55;;
39814;SDS011;25495;45.948;4.568;2022-08-19T11:29:24;4.20;;;3.22;;
39814;SDS011;25495;45.948;4.568;2022-08-19T11:31:50;4.88;;;3.45;;
39814;SDS011;25495;45.948;4.568;2022-08-19T11:34:18;4.28;;;2.95;;
39814;SDS011;25495;45.948;4.568;2022-08-19T11:36:48;7.78;;;3.03;;
39814;SDS011;25495;45.948;4.568;2022-08-19T11:39:16;4.25;;;3.05;;
39814;SDS011;25495;45.948;4.568;2022-08-19T11:41:44;5.90;;;2.80;;
39814;SDS011;25495;45.948;4.568;2022-08-19T11:44:10;6.22;;;2.97;;
39814;SDS011;25495;45.948;4.568;2022-08-19T11:46:38;4.70;;;2.83;;
39814;SDS011;25495;45.948;4.568;2022-08-19T11:49:05;5.75;;;2.97;;
39814;SDS011;25495;45.948;4.568;2022-08-19T11:51:32;3.35;;;3.00;;
39814;SDS011;25495;45.948;4.568;2022-08-19T11:53:59;5.55;;;3.65;;
39814;SDS011;25495;45.948;4.568;2022-08-19T11:56:27;3.70;;;2.60;;
39814;SDS011;25495;45.948;4.568;2022-08-19T11:58:53;4.50;;;2.97;;
39814;SDS011;25495;45.948;4.568;2022-08-19T12:01:21;4.13;;;2.72;;
39814;SDS011;25495;45.948;4.568;2022-08-19T12:03:49;2.80;;;2.60;;
39814;SDS011;25495;45.948;4.568;2022-08-19T12:06:19;4.20;;;3.22;;
39814;SDS011;25495;45.948;4.568;2022-08-19T12:08:53;3.70;;;2.65;;
39814;SDS011;25495;45.948;4.568;2022-08-19T12:11:20;6.57;;;2.78;;
39814;SDS011;25495;45.948;4.568;2022-08-19T12:13:46;2.65;;;2.15;;
39814;SDS011;25495;45.948;4.568;2022-08-19T12:16:16;7.55;;;2.63;;
39814;SDS011;25495;45.948;4.568;2022-08-19T12:18:46;4.53;;;2.55;;
39814;SDS011;25495;45.948;4.568;2022-08-19T12:21:15;5.10;;;2.60;;
39814;SDS011;25495;45.948;4.568;2022-08-19T12:23:42;3.35;;;2.55;;
39814;SDS011;25495;45.948;4.568;2022-08-19T12:26:10;2.97;;;2.30;;
39814;SDS011;25495;45.948;4.568;2022-08-19T12:28:37;4.63;;;2.60;;
39814;SDS011;25495;45.948;4.568;2022-08-19T12:31:03;3.13;;;2.25;;
39814;SDS011;25495;45.948;4.568;2022-08-19T12:33:30;4.05;;;3.00;;
39814;SDS011;25495;45.948;4.568;2022-08-19T12:36:00;3.50;;;2.83;;
39814;SDS011;25495;45.948;4.568;2022-08-19T12:38:28;4.20;;;2.80;;
39814;SDS011;25495;45.948;4.568;2022-08-19T12:40:54;4.63;;;2.17;;
39814;SDS011;25495;45.948;4.568;2022-08-19T12:43:19;7.20;;;2.53;;
39814;SDS011;25495;45.948;4.568;2022-08-19T12:45:45;3.63;;;2.60;;
39814;SDS011;25495;45.948;4.568;2022-08-19T12:48:11;3.05;;;2.45;;
39814;SDS011;25495;45.948;4.568;2022-08-19T12:50:41;4.38;;;2.08;;
39814;SDS011;25495;45.948;4.568;2022-08-19T12:55:34;4.90;;;2.70;;
39814;SDS011;25495;45.948;4.568;2022-08-19T12:58:00;3.55;;;1.92;;
39814;SDS011;25495;45.948;4.568;2022-08-19T13:00:28;4.18;;;2.13;;
39814;SDS011;25495;45.948;4.568;2022-08-19T13:02:55;2.28;;;1.70;;
39814;SDS011;25495;45.948;4.568;2022-08-19T13:05:23;2.65;;;1.90;;
39814;SDS011;25495;45.948;4.568;2022-08-19T13:07:51;2.22;;;1.75;;
39814;SDS011;25495;45.948;4.568;2022-08-19T13:10:23;5.63;;;2.28;;
39814;SDS011;25495;45.948;4.568;2022-08-19T13:15:18;1.63;;;1.33;;
39814;SDS011;25495;45.948;4.568;2022-08-19T13:17:46;2.00;;;1.80;;
39814;SDS011;25495;45.948;4.568;2022-08-19T13:20:17;2.78;;;1.58;;
39814;SDS011;25495;45.948;4.568;2022-08-19T13:22:44;2.15;;;1.70;;
39814;SDS011;25495;45.948;4.568;2022-08-19T13:25:11;2.40;;;1.52;;
39814;SDS011;25495;45.948;4.568;2022-08-19T13:27:38;2.33;;;1.73;;
39814;SDS011;25495;45.948;4.568;2022-08-19T13:30:06;1.80;;;1.27;;
39814;SDS011;25495;45.948;4.568;2022-08-19T13:32:52;3.45;;;1.50;;
39814;SDS011;25495;45.948;4.568;2022-08-19T13:35:40;1.33;;;1.20;;
39814;SDS011;25495;45.948;4.568;2022-08-19T13:38:06;1.90;;;1.30;;
39814;SDS011;25495;45.948;4.568;2022-08-19T13:40:32;1.50;;;1.40;;
39814;SDS011;25495;45.948;4.568;2022-08-19T13:43:01;2.47;;;1.58;;
39814;SDS011;25495;45.948;4.568;2022-08-19T13:45:29;2.42;;;1.48;;
39814;SDS011;25495;45.948;4.568;2022-08-19T13:48:00;4.13;;;1.20;;
39814;SDS011;25495;45.948;4.568;2022-08-19T13:50:32;2.03;;;1.52;;
39814;SDS011;25495;45.948;4.568;2022-08-19T13:52:58;3.70;;;1.30;;
39814;SDS011;25495;45.948;4.568;2022-08-19T13:55:24;1.63;;;1.23;;
39814;SDS011;25495;45.948;4.568;2022-08-19T13:57:55;3.08;;;1.65;;
39814;SDS011;25495;45.948;4.568;2022-08-19T14:00:24;2.25;;;1.35;;
39814;SDS011;25495;45.948;4.568;2022-08-19T14:02:52;1.70;;;1.30;;
39814;SDS011;25495;45.948;4.568;2022-08-19T14:05:20;1.40;;;1.30;;
39814;SDS011;25495;45.948;4.568;2022-08-19T14:07:47;1.40;;;1.30;;
39814;SDS011;25495;45.948;4.568;2022-08-19T14:10:14;3.95;;;1.20;;
39814;SDS011;25495;45.948;4.568;2022-08-19T14:12:40;1.40;;;1.30;;
39814;SDS011;25495;45.948;4.568;2022-08-19T14:15:07;6.28;;;1.30;;
39814;SDS011;25495;45.948;4.568;2022-08-19T14:17:34;1.67;;;1.13;;
39814;SDS011;25495;45.948;4.568;2022-08-19T14:20:03;4.60;;;1.77;;
39814;SDS011;25495;45.948;4.568;2022-08-19T14:22:36;2.00;;;1.50;;
39814;SDS011;25495;45.948;4.568;2022-08-19T14:25:07;3.00;;;1.20;;
39814;SDS011;25495;45.948;4.568;2022-08-19T14:27:36;1.60;;;1.10;;
39814;SDS011;25495;45.948;4.568;2022-08-19T14:30:04;1.83;;;1.20;;
39814;SDS011;25495;45.948;4.568;2022-08-19T14:32:31;1.55;;;1.38;;
39814;SDS011;25495;45.948;4.568;2022-08-19T14:34:58;1.83;;;1.10;;
39814;SDS011;25495;45.948;4.568;2022-08-19T14:37:23;1.38;;;1.27;;
39814;SDS011;25495;45.948;4.568;2022-08-19T14:39:50;1.00;;;0.90;;
39814;SDS011;25495;45.948;4.568;2022-08-19T14:42:16;1.10;;;0.90;;
39814;SDS011;25495;45.948;4.568;2022-08-19T14:44:42;2.88;;;1.70;;
39814;SDS011;25495;45.948;4.568;2022-08-19T14:47:09;1.98;;;1.25;;
39814;SDS011;25495;45.948;4.568;2022-08-19T14:49:35;1.20;;;1.10;;
39814;SDS011;25495;45.948;4.568;2022-08-19T14:52:01;1.67;;;1.00;;
39814;SDS011;25495;45.948;4.568;2022-08-19T14:54:28;1.63;;;1.40;;
39814;SDS011;25495;45.948;4.568;2022-08-19T14:56:54;2.67;;;1.40;;
39814;SDS011;25495;45.948;4.568;2022-08-19T14:59:20;3.55;;;1.42;;
39814;SDS011;25495;45.948;4.568;2022-08-19T15:01:46;1.83;;;1.45;;
39814;SDS011;25495;45.948;4.568;2022-08-19T15:04:11;3.30;;;1.40;;
39814;SDS011;25495;45.948;4.568;2022-08-19T15:06:37;3.33;;;1.55;;
39814;SDS011;25495;45.948;4.568;2022-08-19T15:09:04;1.75;;;1.60;;
39814;SDS011;25495;45.948;4.568;2022-08-19T15:11:30;1.73;;;1.25;;
39814;SDS011;25495;45.948;4.568;2022-08-19T15:13:57;1.48;;;1.15;;
39814;SDS011;25495;45.948;4.568;2022-08-19T15:16:24;2.80;;;1.30;;
39814;SDS011;25495;45.948;4.568;2022-08-19T15:18:52;4.82;;;1.30;;
39814;SDS011;25495;45.948;4.568;2022-08-19T15:21:21;2.27;;;1.53;;